createdAt,value
2015-10-03T00:00:53.403Z,7.7
2015-10-03T00:01:53.342Z,7.8
2015-10-03T00:02:53.298Z,7.8
2015-10-03T00:03:53.255Z,7.8
2015-10-03T00:04:53.195Z,7.8
2015-10-03T00:05:53.135Z,7.8
2015-10-03T00:06:53.075Z,7.6
2015-10-03T00:07:53.031Z,7.6
2015-10-03T00:08:52.969Z,7.6
2015-10-03T00:09:52.908Z,7.6
2015-10-03T00:10:52.864Z,7.6
2015-10-03T00:11:52.804Z,7.6
2015-10-03T00:12:52.745Z,7.6
2015-10-03T00:13:52.701Z,7.6
2015-10-03T00:14:52.641Z,7.6
2015-10-03T00:15:52.582Z,7.6
2015-10-03T00:16:52.537Z,7.7
2015-10-03T00:17:52.477Z,7.7
2015-10-03T00:18:52.433Z,7.7
2015-10-03T00:19:52.374Z,7.7
2015-10-03T00:20:52.313Z,7.7
2015-10-03T00:21:52.254Z,7.7
2015-10-03T00:22:52.193Z,7.7
2015-10-03T00:23:52.149Z,7.7
2015-10-03T00:24:52.090Z,7.7
2015-10-03T00:25:52.046Z,7.8
2015-10-03T00:26:51.987Z,7.7
2015-10-03T00:27:51.943Z,7.7
2015-10-03T00:28:52.086Z,7.7
2015-10-03T00:29:51.823Z,7.7
2015-10-03T00:30:51.778Z,7.7
2015-10-03T00:31:51.718Z,7.7
2015-10-03T00:32:51.660Z,7.6
2015-10-03T00:33:51.615Z,7.6
2015-10-03T00:34:51.554Z,7.5
2015-10-03T00:35:51.512Z,7.4
2015-10-03T00:36:51.467Z,7.3
2015-10-03T00:37:51.392Z,7.4
2015-10-03T00:38:51.347Z,7.3
2015-10-03T00:39:51.287Z,7.2
2015-10-03T00:40:51.224Z,7.2
2015-10-03T00:41:51.151Z,7.2
2015-10-03T00:42:51.094Z,7.2
2015-10-03T00:43:51.037Z,7.1
2015-10-03T00:44:50.948Z,7.2
2015-10-03T00:45:50.894Z,7.2
2015-10-03T00:46:50.831Z,7.2
2015-10-03T00:47:50.766Z,7.1
2015-10-03T00:48:50.717Z,7.1
2015-10-03T00:49:50.669Z,7.1
2015-10-03T00:50:50.590Z,7.1
2015-10-03T00:51:50.544Z,7.1
2015-10-03T00:52:50.483Z,7
2015-10-03T00:53:50.437Z,7
2015-10-03T00:54:50.376Z,7.1
2015-10-03T00:55:50.315Z,7
2015-10-03T00:56:50.254Z,7
2015-10-03T00:57:50.209Z,6.9
2015-10-03T00:58:50.164Z,6.9
2015-10-03T00:59:50.086Z,7
2015-10-03T01:00:50.041Z,7
2015-10-03T01:01:49.981Z,7
2015-10-03T01:02:49.920Z,7
2015-10-03T01:03:49.876Z,7
2015-10-03T01:04:49.816Z,6.9
2015-10-03T01:05:49.756Z,6.9
2015-10-03T01:06:49.711Z,6.9
2015-10-03T01:07:49.652Z,6.9
2015-10-03T01:08:49.655Z,6.8
2015-10-03T01:09:49.548Z,6.8
2015-10-03T01:10:49.489Z,6.8
2015-10-03T01:11:49.428Z,6.8
2015-10-03T01:12:49.385Z,6.9
2015-10-03T01:13:49.341Z,6.8
2015-10-03T01:14:49.265Z,6.9
2015-10-03T01:15:49.221Z,6.9
2015-10-03T01:16:49.161Z,6.8
2015-10-03T01:17:49.101Z,6.7
2015-10-03T01:18:49.041Z,6.7
2015-10-03T01:19:48.997Z,6.8
2015-10-03T01:20:48.938Z,6.7
2015-10-03T01:21:48.883Z,6.6
2015-10-03T01:22:48.823Z,6.7
2015-10-03T01:23:48.779Z,6.6
2015-10-03T01:24:48.719Z,6.6
2015-10-03T01:25:48.659Z,6.6
2015-10-03T01:26:48.615Z,6.5
2015-10-03T01:27:48.555Z,6.4
2015-10-03T01:28:48.495Z,6.4
2015-10-03T01:29:48.435Z,6.4
2015-10-03T01:30:48.392Z,6.2
2015-10-03T01:31:48.332Z,6.3
2015-10-03T01:32:48.287Z,6.3
2015-10-03T01:33:48.228Z,6.3
2015-10-03T01:34:48.169Z,6.4
2015-10-03T01:35:48.109Z,6.5
2015-10-03T01:36:48.064Z,6.5
2015-10-03T01:37:48.005Z,6.5
2015-10-03T01:38:47.945Z,6.5
2015-10-03T01:39:47.885Z,6.5
2015-10-03T01:40:47.856Z,6.5
2015-10-03T01:41:47.782Z,6.6
2015-10-03T01:42:47.721Z,6.6
2015-10-03T01:43:47.678Z,6.4
2015-10-03T01:44:47.617Z,6.3
2015-10-03T01:45:47.558Z,6.2
2015-10-03T01:46:47.514Z,6.2
2015-10-03T01:47:47.454Z,6.1
2015-10-03T01:48:47.409Z,6.1
2015-10-03T01:49:47.351Z,6.1
2015-10-03T01:50:47.307Z,6.1
2015-10-03T01:51:47.246Z,6.1
2015-10-03T01:52:47.184Z,6.1
2015-10-03T01:53:47.124Z,6.1
2015-10-03T01:54:47.064Z,6.2
2015-10-03T01:55:47.019Z,6.2
2015-10-03T01:56:46.960Z,6.3
2015-10-03T01:57:46.900Z,6.3
2015-10-03T01:58:46.856Z,6.2
2015-10-03T01:59:46.797Z,6.1
2015-10-03T02:00:46.737Z,6.2
2015-10-03T02:01:46.692Z,6
2015-10-03T02:02:46.633Z,6
2015-10-03T02:03:46.572Z,5.9
2015-10-03T02:04:46.528Z,5.9
2015-10-03T02:05:46.469Z,5.9
2015-10-03T02:06:46.409Z,5.9
2015-10-03T02:07:46.365Z,6
2015-10-03T02:08:46.306Z,6
2015-10-03T02:09:46.247Z,6
2015-10-03T02:10:46.203Z,6
2015-10-03T02:11:46.141Z,6
2015-10-03T02:12:46.083Z,6.1
2015-10-03T02:13:46.039Z,6.1
2015-10-03T02:14:45.978Z,6
2015-10-03T02:15:45.918Z,6
2015-10-03T02:16:45.859Z,5.9
2015-10-03T02:17:45.814Z,5.8
2015-10-03T02:18:45.755Z,5.8
2015-10-03T02:19:45.711Z,5.7
2015-10-03T02:20:45.651Z,5.8
2015-10-03T02:21:45.591Z,5.8
2015-10-03T02:22:45.532Z,5.8
2015-10-03T02:23:45.488Z,5.9
2015-10-03T02:24:45.428Z,6
2015-10-03T02:25:45.368Z,6
2015-10-03T02:26:45.324Z,6
2015-10-03T02:27:45.264Z,6
2015-10-03T02:28:45.204Z,6.1
2015-10-03T02:29:45.144Z,6
2015-10-03T02:30:45.100Z,5.8
2015-10-03T02:31:45.040Z,5.8
2015-10-03T02:32:44.981Z,5.9
2015-10-03T02:33:44.921Z,6
2015-10-03T02:34:44.876Z,6
2015-10-03T02:35:44.818Z,6.1
2015-10-03T02:36:44.758Z,6.2
2015-10-03T02:37:44.698Z,6.2
2015-10-03T02:38:44.654Z,6
2015-10-03T02:39:44.610Z,6
2015-10-03T02:40:44.534Z,5.9
2015-10-03T02:41:44.490Z,5.9
2015-10-03T02:42:44.430Z,5.9
2015-10-03T02:43:44.383Z,6
2015-10-03T02:44:44.324Z,5.9
2015-10-03T02:45:44.264Z,5.7
2015-10-03T02:46:44.204Z,5.6
2015-10-03T02:47:44.160Z,5.6
2015-10-03T02:48:44.101Z,5.7
2015-10-03T02:49:44.040Z,5.8
2015-10-03T02:50:43.981Z,5.7
2015-10-03T02:51:43.937Z,5.6
2015-10-03T02:52:43.876Z,5.7
2015-10-03T02:53:43.817Z,5.8
2015-10-03T02:54:43.773Z,5.8
2015-10-03T02:55:43.713Z,5.7
2015-10-03T02:56:43.668Z,5.7
2015-10-03T02:57:43.609Z,5.7
2015-10-03T02:58:43.549Z,5.7
2015-10-03T02:59:43.489Z,5.8
2015-10-03T03:00:43.429Z,5.8
2015-10-03T03:01:43.387Z,5.9
2015-10-03T03:02:43.326Z,6
2015-10-03T03:03:43.267Z,5.8
2015-10-03T03:04:43.223Z,5.9
2015-10-03T03:05:43.162Z,5.7
2015-10-03T03:06:43.103Z,5.6
2015-10-03T03:07:43.059Z,5.6
2015-10-03T03:08:42.998Z,5.5
2015-10-03T03:09:42.954Z,5.5
2015-10-03T03:10:42.895Z,5.6
2015-10-03T03:11:42.835Z,5.7
2015-10-03T03:12:42.775Z,5.7
2015-10-03T03:13:42.715Z,5.8
2015-10-03T03:14:42.672Z,5.9
2015-10-03T03:15:42.612Z,5.9
2015-10-03T03:16:42.553Z,5.8
2015-10-03T03:17:42.508Z,5.8
2015-10-03T03:18:42.448Z,5.7
2015-10-03T03:19:42.388Z,5.6
2015-10-03T03:20:42.344Z,5.5
2015-10-03T03:21:42.284Z,5.5
2015-10-03T03:22:42.225Z,5.5
2015-10-03T03:23:42.181Z,5.6
2015-10-03T03:24:42.121Z,5.6
2015-10-03T03:25:42.061Z,5.6
2015-10-03T03:26:42.001Z,5.6
2015-10-03T03:27:41.942Z,5.6
2015-10-03T03:28:41.913Z,5.4
2015-10-03T03:29:41.835Z,5.4
2015-10-03T03:30:41.791Z,5.4
2015-10-03T03:31:41.716Z,5.4
2015-10-03T03:32:41.672Z,5.5
2015-10-03T03:33:41.611Z,5.5
2015-10-03T03:34:41.551Z,5.6
2015-10-03T03:35:41.507Z,5.6
2015-10-03T03:36:41.447Z,5.6
2015-10-03T03:37:41.388Z,5.7
2015-10-03T03:38:41.327Z,5.7
2015-10-03T03:39:41.284Z,5.8
2015-10-03T03:40:41.225Z,5.8
2015-10-03T03:41:41.164Z,5.9
2015-10-03T03:42:41.120Z,5.9
2015-10-03T03:43:41.077Z,6
2015-10-03T03:44:41.001Z,6
2015-10-03T03:45:40.957Z,6
2015-10-03T03:46:40.897Z,5.8
2015-10-03T03:47:40.838Z,5.8
2015-10-03T03:48:40.778Z,5.7
2015-10-03T03:49:40.733Z,5.7
2015-10-03T03:50:40.674Z,5.7
2015-10-03T03:51:40.614Z,5.8
2015-10-03T03:52:40.569Z,5.8
2015-10-03T03:53:40.510Z,5.9
2015-10-03T03:54:40.450Z,5.9
2015-10-03T03:55:40.406Z,5.8
2015-10-03T03:56:40.362Z,5.8
2015-10-03T03:57:40.286Z,5.8
2015-10-03T03:58:40.243Z,5.8
2015-10-03T03:59:40.182Z,5.8
2015-10-03T04:00:40.123Z,5.9
2015-10-03T04:01:40.063Z,5.9
2015-10-03T04:02:40.019Z,5.8
2015-10-03T04:03:39.959Z,5.8
2015-10-03T04:04:39.899Z,5.7
2015-10-03T04:05:39.854Z,5.8
2015-10-03T04:06:39.795Z,5.8
2015-10-03T04:07:39.736Z,5.8
2015-10-03T04:08:39.676Z,5.8
2015-10-03T04:09:39.631Z,5.8
2015-10-03T04:10:39.572Z,5.9
2015-10-03T04:11:39.528Z,5.9
2015-10-03T04:12:39.468Z,5.9
2015-10-03T04:13:39.409Z,5.8
2015-10-03T04:14:39.348Z,5.8
2015-10-03T04:15:39.289Z,5.8
2015-10-03T04:16:39.245Z,5.8
2015-10-03T04:17:39.185Z,5.9
2015-10-03T04:18:39.125Z,5.9
2015-10-03T04:19:39.082Z,5.8
2015-10-03T04:20:39.021Z,5.7
2015-10-03T04:21:38.977Z,5.6
2015-10-03T04:22:38.918Z,5.6
2015-10-03T04:23:38.858Z,5.6
2015-10-03T04:24:38.813Z,5.6
2015-10-03T04:25:38.750Z,5.7
2015-10-03T04:26:38.692Z,5.7
2015-10-03T04:27:38.631Z,5.8
2015-10-03T04:28:38.587Z,5.7
2015-10-03T04:29:38.528Z,5.7
2015-10-03T04:30:38.515Z,5.7
2015-10-03T04:31:38.423Z,5.8
2015-10-03T04:32:38.364Z,5.8
2015-10-03T04:33:38.303Z,5.8
2015-10-03T04:34:38.244Z,5.8
2015-10-03T04:35:38.200Z,5.8
2015-10-03T04:36:38.141Z,5.8
2015-10-03T04:37:38.096Z,5.7
2015-10-03T04:38:38.036Z,5.6
2015-10-03T04:39:37.977Z,5.5
2015-10-03T04:40:37.917Z,5.5
2015-10-03T04:41:37.872Z,5.4
2015-10-03T04:42:37.813Z,5.4
2015-10-03T04:43:37.769Z,5.5
2015-10-03T04:44:37.708Z,5.5
2015-10-03T04:45:37.650Z,5.5
2015-10-03T04:46:37.589Z,5.4
2015-10-03T04:47:37.585Z,5.6
2015-10-03T04:48:37.498Z,5.6
2015-10-03T04:49:37.578Z,5.7
2015-10-03T04:50:37.378Z,5.6
2015-10-03T04:51:37.318Z,5.7
2015-10-03T04:52:37.273Z,5.6
2015-10-03T04:53:37.214Z,5.6
2015-10-03T04:54:37.155Z,5.6
2015-10-03T04:55:37.095Z,5.6
2015-10-03T04:56:37.192Z,5.6
2015-10-03T04:57:37.085Z,5.5
2015-10-03T04:58:36.931Z,5.6
2015-10-03T04:59:36.871Z,5.6
2015-10-03T05:00:36.812Z,5.6
2015-10-03T05:01:36.768Z,5.6
2015-10-03T05:02:36.723Z,5.5
2015-10-03T05:03:36.664Z,5.5
2015-10-03T05:04:36.603Z,5.4
2015-10-03T05:05:36.544Z,5.5
2015-10-03T05:06:36.484Z,5.5
2015-10-03T05:07:36.440Z,5.6
2015-10-03T05:08:36.380Z,5.6
2015-10-03T05:09:36.320Z,5.6
2015-10-03T05:10:36.261Z,5.6
2015-10-03T05:11:36.233Z,5.6
2015-10-03T05:12:36.564Z,5.7
2015-10-03T05:13:36.095Z,5.6
2015-10-03T05:14:36.050Z,5.6
2015-10-03T05:15:35.991Z,5.6
2015-10-03T05:16:35.978Z,5.6
2015-10-03T05:17:35.871Z,5.5
2015-10-03T05:18:35.827Z,5.5
2015-10-03T05:19:35.767Z,5.5
2015-10-03T05:20:35.754Z,5.6
2015-10-03T05:21:35.663Z,5.5
2015-10-03T05:22:35.603Z,5.5
2015-10-03T05:23:35.544Z,5.5
2015-10-03T05:24:35.499Z,5.5
2015-10-03T05:25:35.439Z,5.5
2015-10-03T05:26:35.380Z,5.5
2015-10-03T05:27:35.336Z,5.6
2015-10-03T05:28:35.276Z,5.5
2015-10-03T05:29:35.217Z,5.5
2015-10-03T05:30:35.173Z,5.5
2015-10-03T05:31:35.128Z,5.5
2015-10-03T05:32:35.052Z,5.6
2015-10-03T05:33:35.008Z,5.6
2015-10-03T05:34:34.933Z,5.6
2015-10-03T05:35:34.921Z,5.5
2015-10-03T05:36:34.830Z,5.6
2015-10-03T05:37:34.770Z,5.6
2015-10-03T05:38:34.725Z,5.5
2015-10-03T05:39:34.666Z,5.6
2015-10-03T05:40:34.606Z,5.5
2015-10-03T05:41:34.547Z,5.5
2015-10-03T05:42:34.502Z,5.5
2015-10-03T05:43:34.457Z,5.5
2015-10-03T05:44:34.399Z,5.5
2015-10-03T05:45:34.338Z,5.5
2015-10-03T05:46:34.294Z,5.5
2015-10-03T05:47:34.250Z,5.5
2015-10-03T05:48:34.175Z,5.5
2015-10-03T05:49:34.115Z,5.5
2015-10-03T05:50:34.071Z,5.4
2015-10-03T05:51:34.010Z,5.4
2015-10-03T05:52:33.951Z,5.4
2015-10-03T05:53:33.892Z,5.5
2015-10-03T05:54:33.847Z,5.5
2015-10-03T05:55:33.787Z,5.6
2015-10-03T05:56:33.744Z,5.6
2015-10-03T05:57:33.668Z,5.7
2015-10-03T05:58:33.624Z,5.8
2015-10-03T05:59:33.564Z,5.7
2015-10-03T06:00:33.520Z,5.7
2015-10-03T06:01:33.460Z,5.7
2015-10-03T06:02:33.401Z,5.7
2015-10-03T06:03:33.338Z,5.8
2015-10-03T06:04:33.294Z,5.9
2015-10-03T06:05:33.250Z,5.9
2015-10-03T06:06:33.190Z,5.9
2015-10-03T06:07:33.130Z,6
2015-10-03T06:08:33.070Z,6
2015-10-03T06:09:33.011Z,6
2015-10-03T06:10:32.951Z,6.1
2015-10-03T06:11:32.906Z,6.1
2015-10-03T06:12:32.847Z,6.2
2015-10-03T06:13:32.787Z,6.3
2015-10-03T06:14:32.743Z,6.2
2015-10-03T06:15:32.683Z,6.3
2015-10-03T06:16:32.623Z,6.3
2015-10-03T06:17:32.579Z,6.3
2015-10-03T06:18:32.519Z,6.3
2015-10-03T06:19:32.507Z,6.3
2015-10-03T06:20:32.462Z,6.4
2015-10-03T06:21:32.387Z,6.4
2015-10-03T06:22:32.312Z,6.4
2015-10-03T06:23:32.252Z,6.4
2015-10-03T06:24:32.192Z,6.5
2015-10-03T06:25:32.133Z,6.6
2015-10-03T06:26:32.088Z,6.7
2015-10-03T06:27:32.029Z,6.8
2015-10-03T06:28:31.969Z,6.9
2015-10-03T06:29:31.908Z,6.9
2015-10-03T06:30:31.864Z,6.9
2015-10-03T06:31:31.805Z,6.9
2015-10-03T06:32:31.745Z,6.8
2015-10-03T06:33:31.702Z,6.8
2015-10-03T06:34:31.641Z,6.7
2015-10-03T06:35:31.597Z,6.7
2015-10-03T06:36:31.538Z,6.8
2015-10-03T06:37:31.478Z,6.8
2015-10-03T06:38:31.434Z,6.9
2015-10-03T06:39:31.374Z,7.1
2015-10-03T06:40:31.314Z,7.2
2015-10-03T06:41:31.270Z,7.3
2015-10-03T06:42:31.211Z,7.4
2015-10-03T06:43:31.150Z,7.5
2015-10-03T06:44:31.091Z,7.5
2015-10-03T06:45:31.046Z,7.5
2015-10-03T06:46:30.988Z,7.5
2015-10-03T06:47:30.943Z,7.6
2015-10-03T06:48:30.883Z,7.6
2015-10-03T06:49:30.839Z,7.6
2015-10-03T06:50:30.779Z,7.7
2015-10-03T06:51:30.719Z,7.8
2015-10-03T06:52:30.675Z,7.8
2015-10-03T06:53:30.615Z,7.8
2015-10-03T06:54:30.572Z,7.9
2015-10-03T06:55:30.527Z,7.9
2015-10-03T06:56:30.489Z,8
2015-10-03T06:57:30.395Z,8.1
2015-10-03T06:58:30.352Z,8.1
2015-10-03T06:59:30.307Z,8.1
2015-10-03T07:00:30.232Z,8.3
2015-10-03T07:01:30.188Z,8.4
2015-10-03T07:02:30.128Z,8.5
2015-10-03T07:03:30.083Z,8.6
2015-10-03T07:04:30.024Z,8.7
2015-10-03T07:05:29.963Z,8.8
2015-10-03T07:06:29.920Z,8.8
2015-10-03T07:07:29.877Z,8.9
2015-10-03T07:08:29.832Z,9
2015-10-03T07:09:29.757Z,9
2015-10-03T07:10:29.713Z,9.1
2015-10-03T07:11:29.668Z,9.1
2015-10-03T07:12:29.608Z,9.2
2015-10-03T07:13:29.549Z,9.3
2015-10-03T07:14:29.489Z,9.3
2015-10-03T07:15:29.444Z,9.4
2015-10-03T07:16:29.384Z,9.5
2015-10-03T07:17:29.404Z,9.5
2015-10-03T07:18:29.296Z,9.5
2015-10-03T07:19:29.237Z,9.7
2015-10-03T07:20:29.193Z,9.8
2015-10-03T07:21:29.133Z,9.9
2015-10-03T07:22:29.073Z,10
2015-10-03T07:23:29.029Z,10.1
2015-10-03T07:24:28.985Z,10.1
2015-10-03T07:25:28.925Z,10.1
2015-10-03T07:26:28.865Z,10.2
2015-10-03T07:27:28.806Z,10.3
2015-10-03T07:28:28.762Z,10.4
2015-10-03T07:29:28.701Z,10.4
2015-10-03T07:30:28.657Z,10.4
2015-10-03T07:31:28.613Z,10.4
2015-10-03T07:32:28.553Z,10.5
2015-10-03T07:33:28.494Z,10.4
2015-10-03T07:34:28.465Z,10.5
2015-10-03T07:35:28.390Z,10.5
2015-10-03T07:36:28.346Z,10.6
2015-10-03T07:37:28.334Z,10.7
2015-10-03T07:38:28.242Z,10.6
2015-10-03T07:39:28.182Z,10.6
2015-10-03T07:40:28.137Z,10.7
2015-10-03T07:41:28.078Z,10.8
2015-10-03T07:42:28.034Z,10.8
2015-10-03T07:43:27.975Z,10.9
2015-10-03T07:44:27.931Z,10.9
2015-10-03T07:45:27.870Z,11
2015-10-03T07:46:27.825Z,11.1
2015-10-03T07:47:27.767Z,11.1
2015-10-03T07:48:27.722Z,11.1
2015-10-03T07:49:27.662Z,11.1
2015-10-03T07:50:27.619Z,11.1
2015-10-03T07:51:27.559Z,11.1
2015-10-03T07:52:27.515Z,11.1
2015-10-03T07:53:27.455Z,11.2
2015-10-03T07:54:27.411Z,11.2
2015-10-03T07:55:27.351Z,11.3
2015-10-03T07:56:27.289Z,11.4
2015-10-03T07:57:27.353Z,11.5
2015-10-03T07:58:27.199Z,11.4
2015-10-03T07:59:27.141Z,11.4
2015-10-03T08:00:27.080Z,11.4
2015-10-03T08:01:27.036Z,11.5
2015-10-03T08:02:26.977Z,11.6
2015-10-03T08:03:27.042Z,11.6
2015-10-03T08:04:26.872Z,11.6
2015-10-03T08:05:26.828Z,11.6
2015-10-03T08:06:26.769Z,11.6
2015-10-03T08:07:26.741Z,11.7
2015-10-03T08:08:26.665Z,11.7
2015-10-03T08:09:26.621Z,11.7
2015-10-03T08:10:26.561Z,11.6
2015-10-03T08:11:26.516Z,11.6
2015-10-03T08:12:26.457Z,11.7
2015-10-03T08:13:26.413Z,11.7
2015-10-03T08:14:26.352Z,11.7
2015-10-03T08:15:26.309Z,11.7
2015-10-03T08:16:26.249Z,11.8
2015-10-03T08:17:26.190Z,11.8
2015-10-03T08:18:26.146Z,11.8
2015-10-03T08:19:26.085Z,11.8
2015-10-03T08:20:26.040Z,11.9
2015-10-03T08:21:25.982Z,11.9
2015-10-03T08:22:25.937Z,12
2015-10-03T08:23:25.909Z,11.9
2015-10-03T08:24:25.834Z,12
2015-10-03T08:25:25.790Z,12.1
2015-10-03T08:26:25.729Z,12.3
2015-10-03T08:27:25.685Z,12.2
2015-10-03T08:28:25.626Z,12.2
2015-10-03T08:29:25.581Z,12.2
2015-10-03T08:30:25.521Z,12.3
2015-10-03T08:31:25.492Z,12.3
2015-10-03T08:32:25.433Z,12.2
2015-10-03T08:33:25.373Z,12.2
2015-10-03T08:34:25.329Z,12.2
2015-10-03T08:35:25.270Z,12.3
2015-10-03T08:36:25.210Z,12.3
2015-10-03T08:37:25.181Z,12.4
2015-10-03T08:38:25.121Z,12.4
2015-10-03T08:39:25.062Z,12.4
2015-10-03T08:40:25.034Z,12.4
2015-10-03T08:41:24.958Z,12.4
2015-10-03T08:42:25.008Z,12.4
2015-10-03T08:43:24.853Z,12.5
2015-10-03T08:44:24.809Z,12.6
2015-10-03T08:45:24.766Z,12.7
2015-10-03T08:46:24.706Z,12.7
2015-10-03T08:47:24.661Z,12.8
2015-10-03T08:48:24.602Z,12.9
2015-10-03T08:49:24.542Z,12.8
2015-10-03T08:50:24.497Z,12.9
2015-10-03T08:51:24.453Z,12.9
2015-10-03T08:52:24.409Z,12.8
2015-10-03T08:53:24.334Z,13
2015-10-03T08:54:24.290Z,13
2015-10-03T08:55:24.230Z,13
2015-10-03T08:56:24.186Z,12.9
2015-10-03T08:57:24.126Z,13
2015-10-03T08:58:24.082Z,12.9
2015-10-03T08:59:24.022Z,13
2015-10-03T09:00:23.978Z,13
2015-10-03T09:01:23.918Z,13
2015-10-03T09:02:23.874Z,13.1
2015-10-03T09:03:23.830Z,13.2
2015-10-03T09:04:23.768Z,13.3
2015-10-03T09:05:23.707Z,13.3
2015-10-03T09:06:23.663Z,13.3
2015-10-03T09:07:23.604Z,13.4
2015-10-03T09:08:23.560Z,13.4
2015-10-03T09:09:23.499Z,13.5
2015-10-03T09:10:23.456Z,13.4
2015-10-03T09:11:23.396Z,13.4
2015-10-03T09:12:23.367Z,13.5
2015-10-03T09:13:23.307Z,13.6
2015-10-03T09:14:23.263Z,13.6
2015-10-03T09:15:23.188Z,13.7
2015-10-03T09:16:23.144Z,13.7
2015-10-03T09:17:23.132Z,13.7
2015-10-03T09:18:23.040Z,13.8
2015-10-03T09:19:22.996Z,13.8
2015-10-03T09:20:22.937Z,13.8
2015-10-03T09:21:22.893Z,13.8
2015-10-03T09:22:22.832Z,13.7
2015-10-03T09:23:25.898Z,13.8
2015-10-03T09:24:22.744Z,13.8
2015-10-03T09:25:22.685Z,13.9
2015-10-03T09:26:22.640Z,14
2015-10-03T09:27:22.596Z,14.1
2015-10-03T09:28:22.537Z,14.1
2015-10-03T09:29:22.492Z,14.2
2015-10-03T09:30:22.448Z,14.3
2015-10-03T09:31:22.389Z,14.2
2015-10-03T09:32:22.329Z,14.1
2015-10-03T09:33:22.284Z,14.1
2015-10-03T09:34:22.240Z,14.1
2015-10-03T09:35:22.180Z,14.1
2015-10-03T09:36:22.137Z,14.1
2015-10-03T09:37:22.092Z,14.2
2015-10-03T09:38:22.033Z,14.1
2015-10-03T09:39:21.989Z,14.1
2015-10-03T09:40:21.928Z,14.1
2015-10-03T09:41:21.884Z,14.1
2015-10-03T09:42:21.825Z,14.1
2015-10-03T09:43:21.781Z,14.1
2015-10-03T09:44:21.720Z,14.1
2015-10-03T09:45:21.677Z,14.2
2015-10-03T09:46:21.617Z,14.2
2015-10-03T09:47:21.565Z,14.2
2015-10-03T09:48:21.493Z,14.2
2015-10-03T09:49:21.453Z,14.2
2015-10-03T09:50:21.381Z,14.4
2015-10-03T09:51:21.309Z,14.4
2015-10-03T09:52:21.261Z,14.4
2015-10-03T09:53:21.212Z,14.5
2015-10-03T09:54:21.148Z,14.6
2015-10-03T09:55:21.100Z,14.6
2015-10-03T09:56:21.052Z,14.6
2015-10-03T09:57:20.990Z,14.6
2015-10-03T09:58:20.929Z,14.8
2015-10-03T09:59:20.884Z,14.8
2015-10-03T10:00:20.838Z,14.9
2015-10-03T10:01:20.776Z,15
2015-10-03T10:02:20.732Z,15
2015-10-03T10:03:20.672Z,15
2015-10-03T10:04:20.643Z,15
2015-10-03T10:05:20.564Z,15
2015-10-03T10:06:20.521Z,15
2015-10-03T10:07:20.476Z,14.9
2015-10-03T10:08:20.431Z,14.9
2015-10-03T10:09:20.371Z,15
2015-10-03T10:10:20.311Z,15
2015-10-03T10:11:20.266Z,15.1
2015-10-03T10:12:20.221Z,15.1
2015-10-03T10:13:20.178Z,15.1
2015-10-03T10:14:20.118Z,15
2015-10-03T10:15:20.074Z,15.1
2015-10-03T10:16:20.014Z,15.2
2015-10-03T10:17:19.969Z,15.1
2015-10-03T10:18:19.909Z,15.2
2015-10-03T10:19:19.865Z,15.2
2015-10-03T10:20:19.821Z,15.2
2015-10-03T10:21:19.761Z,15.1
2015-10-03T10:22:19.717Z,15.1
2015-10-03T10:23:19.657Z,15.2
2015-10-03T10:24:19.613Z,15.1
2015-10-03T10:25:19.569Z,15.2
2015-10-03T10:26:19.541Z,15.3
2015-10-03T10:27:19.465Z,15.4
2015-10-03T10:28:19.406Z,15.3
2015-10-03T10:29:19.361Z,15.3
2015-10-03T10:30:19.318Z,15.4
2015-10-03T10:31:19.258Z,15.4
2015-10-03T10:32:19.557Z,15.5
2015-10-03T10:33:19.154Z,15.5
2015-10-03T10:34:19.188Z,15.5
2015-10-03T10:35:19.190Z,15.6
2015-10-03T10:36:19.006Z,15.6
2015-10-03T10:37:18.946Z,15.6
2015-10-03T10:38:18.901Z,15.7
2015-10-03T10:39:18.858Z,15.7
2015-10-03T10:40:18.798Z,15.7
2015-10-03T10:41:18.753Z,15.6
2015-10-03T10:42:18.709Z,15.6
2015-10-03T10:43:18.650Z,15.6
2015-10-03T10:44:18.606Z,15.6
2015-10-03T10:45:18.545Z,15.7
2015-10-03T10:46:18.502Z,15.7
2015-10-03T10:47:18.458Z,15.7
2015-10-03T10:48:18.403Z,15.8
2015-10-03T10:49:18.358Z,15.8
2015-10-03T10:50:18.299Z,15.8
2015-10-03T10:51:18.254Z,15.8
2015-10-03T10:52:18.194Z,15.8
2015-10-03T10:53:18.150Z,15.9
2015-10-03T10:54:18.107Z,16
2015-10-03T10:55:18.047Z,16
2015-10-03T10:56:18.003Z,16
2015-10-03T10:57:17.944Z,15.9
2015-10-03T10:58:17.899Z,15.9
2015-10-03T10:59:17.854Z,15.9
2015-10-03T11:00:17.795Z,15.9
2015-10-03T11:01:17.766Z,15.9
2015-10-03T11:02:17.706Z,15.9
2015-10-03T11:03:17.647Z,15.8
2015-10-03T11:04:17.602Z,15.7
2015-10-03T11:05:17.543Z,15.7
2015-10-03T11:06:17.499Z,15.8
2015-10-03T11:07:17.439Z,15.9
2015-10-03T11:08:17.396Z,16.1
2015-10-03T11:09:17.351Z,16.2
2015-10-03T11:10:17.291Z,16.2
2015-10-03T11:11:17.247Z,16.2
2015-10-03T11:12:17.200Z,16.2
2015-10-03T11:13:17.140Z,16.3
2015-10-03T11:14:17.096Z,16.4
2015-10-03T11:15:17.052Z,16.4
2015-10-03T11:16:16.992Z,16.4
2015-10-03T11:17:16.948Z,16.5
2015-10-03T11:18:16.888Z,16.4
2015-10-03T11:19:16.844Z,16.4
2015-10-03T11:20:16.800Z,16.4
2015-10-03T11:21:16.740Z,16.4
2015-10-03T11:22:16.696Z,16.5
2015-10-03T11:23:16.651Z,16.5
2015-10-03T11:24:16.592Z,16.5
2015-10-03T11:25:16.548Z,16.5
2015-10-03T11:26:16.504Z,16.6
2015-10-03T11:27:16.460Z,16.6
2015-10-03T11:28:16.400Z,16.5
2015-10-03T11:29:16.356Z,16.5
2015-10-03T11:30:16.295Z,16.5
2015-10-03T11:31:16.251Z,16.6
2015-10-03T11:32:16.208Z,16.6
2015-10-03T11:33:16.148Z,16.6
2015-10-03T11:34:16.104Z,16.7
2015-10-03T11:35:16.045Z,16.7
2015-10-03T11:36:16.000Z,16.7
2015-10-03T11:37:16.080Z,16.7
2015-10-03T11:38:15.911Z,16.7
2015-10-03T11:39:15.852Z,16.8
2015-10-03T11:40:15.808Z,16.8
2015-10-03T11:41:15.764Z,16.8
2015-10-03T11:42:15.703Z,16.8
2015-10-03T11:43:15.659Z,16.8
2015-10-03T11:44:15.615Z,16.8
2015-10-03T11:45:15.555Z,16.9
2015-10-03T11:46:15.511Z,16.9
2015-10-03T11:47:15.452Z,16.9
2015-10-03T11:48:15.408Z,16.9
2015-10-03T11:49:15.364Z,16.9
2015-10-03T11:50:15.320Z,16.9
2015-10-03T11:51:15.291Z,17
2015-10-03T11:52:15.216Z,17.1
2015-10-03T11:53:15.171Z,17.1
2015-10-03T11:54:15.127Z,17
2015-10-03T11:55:15.067Z,17
2015-10-03T11:56:15.023Z,17
2015-10-03T11:57:14.980Z,17
2015-10-03T11:58:14.919Z,17.1
2015-10-03T11:59:14.874Z,17.2
2015-10-03T12:00:14.830Z,17.2
2015-10-03T12:01:14.787Z,17.1
2015-10-03T12:02:14.743Z,17.2
2015-10-03T12:03:14.683Z,17.2
2015-10-03T12:04:14.638Z,17.1
2015-10-03T12:05:14.579Z,17.2
2015-10-03T12:06:14.534Z,17.2
2015-10-03T12:07:14.491Z,17.2
2015-10-03T12:08:14.431Z,17
2015-10-03T12:09:14.386Z,17
2015-10-03T12:10:14.343Z,17.1
2015-10-03T12:11:14.298Z,17.1
2015-10-03T12:12:14.238Z,17.1
2015-10-03T12:13:14.194Z,17.1
2015-10-03T12:14:14.135Z,17.2
2015-10-03T12:15:14.090Z,17.2
2015-10-03T12:16:14.045Z,17.1
2015-10-03T12:17:14.001Z,17.2
2015-10-03T12:18:13.942Z,17.2
2015-10-03T12:19:13.898Z,17.3
2015-10-03T12:20:13.838Z,17.4
2015-10-03T12:21:13.825Z,17.5
2015-10-03T12:22:13.750Z,17.4
2015-10-03T12:23:13.690Z,17.4
2015-10-03T12:24:13.646Z,17.4
2015-10-03T12:25:13.602Z,17.5
2015-10-03T12:26:13.558Z,17.5
2015-10-03T12:27:13.498Z,17.5
2015-10-03T12:28:13.454Z,17.6
2015-10-03T12:29:13.407Z,17.5
2015-10-03T12:30:13.363Z,17.5
2015-10-03T12:31:13.302Z,17.5
2015-10-03T12:32:13.258Z,17.5
2015-10-03T12:33:13.214Z,17.6
2015-10-03T12:34:13.170Z,17.6
2015-10-03T12:35:13.110Z,17.6
2015-10-03T12:36:13.066Z,17.6
2015-10-03T12:37:13.178Z,17.6
2015-10-03T12:38:12.963Z,17.6
2015-10-03T12:39:12.918Z,17.7
2015-10-03T12:40:12.874Z,17.8
2015-10-03T12:41:12.830Z,17.8
2015-10-03T12:42:12.771Z,17.8
2015-10-03T12:43:12.773Z,17.7
2015-10-03T12:44:12.666Z,17.8
2015-10-03T12:45:12.700Z,17.9
2015-10-03T12:46:12.656Z,18.1
2015-10-03T12:47:12.768Z,18.2
2015-10-03T12:48:12.490Z,18.2
2015-10-03T12:49:12.446Z,18.1
2015-10-03T12:50:12.386Z,18.1
2015-10-03T12:51:12.421Z,18
2015-10-03T12:52:12.298Z,18
2015-10-03T12:53:12.254Z,18
2015-10-03T12:54:12.224Z,18
2015-10-03T12:55:12.149Z,18
2015-10-03T12:56:12.105Z,17.9
2015-10-03T12:57:12.046Z,17.9
2015-10-03T12:58:12.001Z,17.9
2015-10-03T12:59:11.957Z,18
2015-10-03T13:00:11.913Z,18
2015-10-03T13:01:11.854Z,18
2015-10-03T13:02:11.810Z,17.9
2015-10-03T13:03:11.765Z,17.9
2015-10-03T13:04:11.862Z,17.9
2015-10-03T13:05:11.661Z,18
2015-10-03T13:06:11.633Z,18
2015-10-03T13:07:11.573Z,18
2015-10-03T13:08:11.529Z,18.1
2015-10-03T13:09:11.485Z,18.1
2015-10-03T13:10:11.425Z,18
2015-10-03T13:11:11.381Z,18
2015-10-03T13:12:11.337Z,18
2015-10-03T13:13:11.277Z,18
2015-10-03T13:14:11.233Z,18
2015-10-03T13:15:11.189Z,18
2015-10-03T13:16:11.160Z,18
2015-10-03T13:17:11.100Z,18
2015-10-03T13:18:11.040Z,18.1
2015-10-03T13:19:10.997Z,18.1
2015-10-03T13:20:10.952Z,18.1
2015-10-03T13:21:10.908Z,18.1
2015-10-03T13:22:10.848Z,18.1
2015-10-03T13:23:10.804Z,18.2
2015-10-03T13:24:10.760Z,18.2
2015-10-03T13:25:10.701Z,18.2
2015-10-03T13:26:10.656Z,18.2
2015-10-03T13:27:10.644Z,18.3
2015-10-03T13:28:10.661Z,18.3
2015-10-03T13:29:10.664Z,18.3
2015-10-03T13:30:10.464Z,18.3
2015-10-03T13:31:10.436Z,18.3
2015-10-03T13:32:10.375Z,18.3
2015-10-03T13:33:10.331Z,18.3
2015-10-03T13:34:10.269Z,18.3
2015-10-03T13:35:10.225Z,18.4
2015-10-03T13:36:10.181Z,18.4
2015-10-03T13:37:10.136Z,18.4
2015-10-03T13:38:10.092Z,18.4
2015-10-03T13:39:10.064Z,18.4